Hauptseite
METAR-TAF:

METAR-TAF

Flughäfen :

Flughafen Recife

Recife, Pernambuco, Brasilien

Breite: 08-08S, Länge: 034-55W, Höhe: 19 m

Beobachtung

Neuester Wetterbericht von vor 1 Stunde und 5 Minuten, um 22:00 UTC
Wind 13 kt aus Süd/Südost
Temperatur 27°C
Luftfeuchtigkeit 74%
Luftdruck 1016 hPa
Sichtweite 10 km oder mehr
Aufgelockert bewölkt in der Höhe von 2500 ft
Durchbrochene Bewölkung in der Höhe von 5000 ft

METAR: SBRF 162200Z 15013KT 9999 SCT025 BKN050 27/22 Q1016

Zeit: 20:05 (23:05 UTC)

Prognose

Neuester Wetterbericht von vor 8 Stunden und 5 Minuten, um 15:00 UTC
Gültige Prognose vom 16 um 18 UTC bis 17 um 18 UTC
Wind 10 kt aus Südost
Sichtweite 10 km oder mehr
Aufgelockert bewölkt in der Höhe von 2300 ft

TAF: SBRF 161500Z 1618/1718 14010KT 9999 SCT023 TN26/1705Z TX29/1715Z RMK PCH

Wetterbeobachtungen und Prognosen von mehr als 4000 Flughäfen (METAR und TAF Bericht).

Die verfügbaren Stationen werden durch gelbe und rote Markierungen auf der Karte dargestellt.

Führen Sie die Maus auf sie, um den Namen der Station zu sehen.

Darauf klicken, um die Beobachtung von Wetterbeobachtungen und Prognosen zu sehen.

Um die Karte zu ändern : klicken Sie auf den grünen Tasten mit einem schwarzen Kreuz Zum Vergrößern, auf den grünen Button mit einem Gedankenstrich zu verkleinern, oder auf die grünen Pfeile für benachbarte Karten.


METAR-TAF: